sensor_id;sensor_type;location;lat;lon;timestamp;pressure;altitude;pressure_sealevel;temperature;humidity
3178;BME280;38141;42.666;23.344;2023-02-24T00:00:12;94655.56;;;7.66;100.00
3178;BME280;38141;42.666;23.344;2023-02-24T00:02:59;94654.53;;;7.74;100.00
3178;BME280;38141;42.666;23.344;2023-02-24T00:05:32;94677.16;;;7.99;100.00
3178;BME280;38141;42.666;23.344;2023-02-24T00:07:59;94637.00;;;7.87;100.00
3178;BME280;38141;42.666;23.344;2023-02-24T00:10:26;94671.22;;;8.17;100.00
3178;BME280;38141;42.666;23.344;2023-02-24T00:12:53;94656.38;;;8.00;100.00
3178;BME280;38141;42.666;23.344;2023-02-24T00:15:19;94671.81;;;8.03;100.00
3178;BME280;38141;42.666;23.344;2023-02-24T00:17:46;94674.69;;;8.17;100.00
3178;BME280;38141;42.666;23.344;2023-02-24T00:20:15;94651.16;;;7.81;100.00
3178;BME280;38141;42.666;23.344;2023-02-24T00:22:43;94673.91;;;7.87;100.00
3178;BME280;38141;42.666;23.344;2023-02-24T00:25:10;94675.63;;;7.98;100.00
3178;BME280;38141;42.666;23.344;2023-02-24T00:27:39;94668.75;;;8.04;100.00
3178;BME280;38141;42.666;23.344;2023-02-24T00:30:07;94671.09;;;8.06;100.00
3178;BME280;38141;42.666;23.344;2023-02-24T00:32:36;94670.22;;;7.98;100.00
3178;BME280;38141;42.666;23.344;2023-02-24T00:35:04;94669.19;;;7.77;100.00
3178;BME280;38141;42.666;23.344;2023-02-24T00:37:32;94673.41;;;7.78;100.00
3178;BME280;38141;42.666;23.344;2023-02-24T00:39:59;94658.97;;;7.89;100.00
3178;BME280;38141;42.666;23.344;2023-02-24T00:42:26;94633.91;;;7.85;100.00
3178;BME280;38141;42.666;23.344;2023-02-24T00:44:52;94666.06;;;7.75;100.00
3178;BME280;38141;42.666;23.344;2023-02-24T00:47:19;94652.97;;;7.73;100.00
3178;BME280;38141;42.666;23.344;2023-02-24T00:49:47;94651.66;;;7.64;100.00
3178;BME280;38141;42.666;23.344;2023-02-24T00:52:17;94628.41;;;7.48;100.00
3178;BME280;38141;42.666;23.344;2023-02-24T00:54:47;94629.50;;;7.44;100.00
3178;BME280;38141;42.666;23.344;2023-02-24T00:57:14;94660.53;;;7.64;100.00
3178;BME280;38141;42.666;23.344;2023-02-24T00:59:43;94651.94;;;7.55;100.00
3178;BME280;38141;42.666;23.344;2023-02-24T01:02:12;94644.38;;;7.64;100.00
3178;BME280;38141;42.666;23.344;2023-02-24T01:04:39;94633.00;;;7.78;100.00
3178;BME280;38141;42.666;23.344;2023-02-24T01:07:06;94631.09;;;7.78;100.00
3178;BME280;38141;42.666;23.344;2023-02-24T01:09:36;94637.44;;;7.93;100.00
3178;BME280;38141;42.666;23.344;2023-02-24T01:12:06;94617.69;;;7.82;100.00
3178;BME280;38141;42.666;23.344;2023-02-24T01:14:51;94635.00;;;7.81;100.00
3178;BME280;38141;42.666;23.344;2023-02-24T01:17:19;94621.53;;;7.81;100.00
3178;BME280;38141;42.666;23.344;2023-02-24T01:19:46;94624.88;;;7.71;100.00
3178;BME280;38141;42.666;23.344;2023-02-24T01:22:15;94632.09;;;7.63;100.00
3178;BME280;38141;42.666;23.344;2023-02-24T01:24:43;94586.81;;;7.42;100.00
3178;BME280;38141;42.666;23.344;2023-02-24T01:27:13;94601.25;;;7.31;100.00
3178;BME280;38141;42.666;23.344;2023-02-24T01:29:41;94573.38;;;7.16;100.00
3178;BME280;38141;42.666;23.344;2023-02-24T01:32:13;94610.50;;;7.33;100.00
3178;BME280;38141;42.666;23.344;2023-02-24T01:34:41;94617.69;;;7.52;100.00
3178;BME280;38141;42.666;23.344;2023-02-24T01:37:08;94623.97;;;7.33;100.00
3178;BME280;38141;42.666;23.344;2023-02-24T01:39:34;94603.88;;;7.27;100.00
3178;BME280;38141;42.666;23.344;2023-02-24T01:42:03;94606.38;;;7.13;100.00
3178;BME280;38141;42.666;23.344;2023-02-24T01:47:42;94623.72;;;7.15;100.00
3178;BME280;38141;42.666;23.344;2023-02-24T01:50:11;94604.13;;;7.19;100.00
3178;BME280;38141;42.666;23.344;2023-02-24T01:52:42;94613.03;;;7.23;100.00
3178;BME280;38141;42.666;23.344;2023-02-24T01:55:12;94619.31;;;7.30;100.00
3178;BME280;38141;42.666;23.344;2023-02-24T01:57:41;94608.09;;;7.25;100.00
3178;BME280;38141;42.666;23.344;2023-02-24T02:00:12;94607.03;;;7.33;100.00
3178;BME280;38141;42.666;23.344;2023-02-24T02:03:00;94620.50;;;7.33;100.00
3178;BME280;38141;42.666;23.344;2023-02-24T02:05:28;94582.63;;;6.92;100.00
3178;BME280;38141;42.666;23.344;2023-02-24T02:07:55;94604.91;;;6.93;100.00
3178;BME280;38141;42.666;23.344;2023-02-24T02:10:22;94520.28;;;6.34;100.00
3178;BME280;38141;42.666;23.344;2023-02-24T02:12:53;94504.69;;;6.43;100.00
3178;BME280;38141;42.666;23.344;2023-02-24T02:15:21;94577.97;;;7.15;100.00
3178;BME280;38141;42.666;23.344;2023-02-24T02:17:55;94610.78;;;7.25;100.00
3178;BME280;38141;42.666;23.344;2023-02-24T02:20:45;94543.66;;;6.56;100.00
3178;BME280;38141;42.666;23.344;2023-02-24T02:23:50;94538.19;;;6.49;100.00
3178;BME280;38141;42.666;23.344;2023-02-24T02:29:40;94597.59;;;6.90;100.00
3178;BME280;38141;42.666;23.344;2023-02-24T02:35:31;94528.44;;;6.41;100.00
3178;BME280;38141;42.666;23.344;2023-02-24T02:38:07;94611.38;;;6.88;100.00
3178;BME280;38141;42.666;23.344;2023-02-24T02:40:43;94536.47;;;6.38;100.00
3178;BME280;38141;42.666;23.344;2023-02-24T02:43:15;94591.94;;;6.72;100.00
3178;BME280;38141;42.666;23.344;2023-02-24T02:45:48;94550.66;;;6.38;100.00
3178;BME280;38141;42.666;23.344;2023-02-24T02:48:25;94590.31;;;6.67;100.00
3178;BME280;38141;42.666;23.344;2023-02-24T02:50:59;94612.47;;;6.84;100.00
3178;BME280;38141;42.666;23.344;2023-02-24T02:53:35;94564.69;;;6.51;100.00
3178;BME280;38141;42.666;23.344;2023-02-24T02:56:09;94575.56;;;6.58;100.00
3178;BME280;38141;42.666;23.344;2023-02-24T02:58:40;94592.81;;;6.57;100.00
3178;BME280;38141;42.666;23.344;2023-02-24T03:01:08;94609.44;;;6.62;100.00
3178;BME280;38141;42.666;23.344;2023-02-24T03:03:39;94513.34;;;6.10;100.00
3178;BME280;38141;42.666;23.344;2023-02-24T03:06:13;94583.88;;;6.72;100.00
3178;BME280;38141;42.666;23.344;2023-02-24T03:08:45;94593.00;;;6.67;100.00
3178;BME280;38141;42.666;23.344;2023-02-24T03:11:17;94583.19;;;6.56;100.00
3178;BME280;38141;42.666;23.344;2023-02-24T03:13:47;94566.31;;;6.55;100.00
3178;BME280;38141;42.666;23.344;2023-02-24T03:16:17;94576.97;;;6.75;100.00
3178;BME280;38141;42.666;23.344;2023-02-24T03:18:48;94568.25;;;6.81;100.00
3178;BME280;38141;42.666;23.344;2023-02-24T03:21:24;94585.78;;;6.72;100.00
3178;BME280;38141;42.666;23.344;2023-02-24T03:23:55;94586.38;;;6.61;100.00
3178;BME280;38141;42.666;23.344;2023-02-24T03:26:25;94567.13;;;6.59;100.00
3178;BME280;38141;42.666;23.344;2023-02-24T03:28:59;94591.25;;;6.56;100.00
3178;BME280;38141;42.666;23.344;2023-02-24T03:31:33;94599.31;;;6.79;100.00
3178;BME280;38141;42.666;23.344;2023-02-24T03:34:06;94515.94;;;6.26;100.00
3178;BME280;38141;42.666;23.344;2023-02-24T03:36:36;94589.09;;;6.88;100.00
3178;BME280;38141;42.666;23.344;2023-02-24T03:39:03;94592.56;;;6.88;100.00
3178;BME280;38141;42.666;23.344;2023-02-24T03:41:39;94587.97;;;6.89;100.00
3178;BME280;38141;42.666;23.344;2023-02-24T03:44:09;94592.97;;;6.90;100.00
3178;BME280;38141;42.666;23.344;2023-02-24T03:46:37;94588.00;;;6.92;100.00
3178;BME280;38141;42.666;23.344;2023-02-24T03:49:11;94582.63;;;6.92;100.00
3178;BME280;38141;42.666;23.344;2023-02-24T03:51:40;94584.91;;;6.90;100.00
3178;BME280;38141;42.666;23.344;2023-02-24T03:54:22;94548.59;;;6.77;100.00
3178;BME280;38141;42.666;23.344;2023-02-24T03:57:04;94590.88;;;7.03;100.00
3178;BME280;38141;42.666;23.344;2023-02-24T03:59:43;94575.38;;;6.70;100.00
3178;BME280;38141;42.666;23.344;2023-02-24T04:02:16;94589.78;;;6.81;100.00
3178;BME280;38141;42.666;23.344;2023-02-24T04:04:46;94546.47;;;6.41;100.00
3178;BME280;38141;42.666;23.344;2023-02-24T04:07:22;94576.22;;;6.51;100.00
3178;BME280;38141;42.666;23.344;2023-02-24T04:10:02;94589.81;;;6.85;100.00
3178;BME280;38141;42.666;23.344;2023-02-24T04:12:35;94626.94;;;6.76;100.00
3178;BME280;38141;42.666;23.344;2023-02-24T04:15:09;94558.28;;;6.59;100.00
3178;BME280;38141;42.666;23.344;2023-02-24T04:17:41;94610.38;;;6.74;100.00
3178;BME280;38141;42.666;23.344;2023-02-24T04:20:11;94562.84;;;6.55;100.00
3178;BME280;38141;42.666;23.344;2023-02-24T04:22:43;94593.63;;;6.84;100.00
3178;BME280;38141;42.666;23.344;2023-02-24T04:25:15;94591.38;;;6.86;100.00
3178;BME280;38141;42.666;23.344;2023-02-24T04:27:45;94545.31;;;6.64;100.00
3178;BME280;38141;42.666;23.344;2023-02-24T04:30:12;94586.66;;;7.05;100.00
3178;BME280;38141;42.666;23.344;2023-02-24T04:32:39;94497.94;;;6.53;100.00
3178;BME280;38141;42.666;23.344;2023-02-24T04:35:11;94550.91;;;7.05;100.00
3178;BME280;38141;42.666;23.344;2023-02-24T04:37:38;94496.91;;;6.61;100.00
3178;BME280;38141;42.666;23.344;2023-02-24T04:40:12;94579.97;;;6.96;100.00
3178;BME280;38141;42.666;23.344;2023-02-24T04:42:41;94555.94;;;6.80;100.00
3178;BME280;38141;42.666;23.344;2023-02-24T04:45:14;94533.97;;;6.75;100.00
3178;BME280;38141;42.666;23.344;2023-02-24T04:47:42;94492.41;;;6.42;100.00
3178;BME280;38141;42.666;23.344;2023-02-24T04:50:14;94577.25;;;6.92;100.00
3178;BME280;38141;42.666;23.344;2023-02-24T04:52:48;94575.44;;;7.00;100.00
3178;BME280;38141;42.666;23.344;2023-02-24T04:55:18;94571.22;;;6.99;100.00
3178;BME280;38141;42.666;23.344;2023-02-24T04:57:47;94500.47;;;6.68;100.00
3178;BME280;38141;42.666;23.344;2023-02-24T05:00:14;94491.69;;;6.72;100.00
3178;BME280;38141;42.666;23.344;2023-02-24T05:02:47;94513.19;;;6.72;100.00
3178;BME280;38141;42.666;23.344;2023-02-24T05:05:15;94507.00;;;6.67;100.00
3178;BME280;38141;42.666;23.344;2023-02-24T05:07:42;94557.25;;;6.90;100.00
3178;BME280;38141;42.666;23.344;2023-02-24T05:10:13;94519.34;;;6.72;100.00
3178;BME280;38141;42.666;23.344;2023-02-24T05:12:42;94501.28;;;6.72;100.00
3178;BME280;38141;42.666;23.344;2023-02-24T05:15:10;94486.59;;;6.63;100.00
3178;BME280;38141;42.666;23.344;2023-02-24T05:17:37;94477.84;;;6.69;100.00
3178;BME280;38141;42.666;23.344;2023-02-24T05:20:06;94582.47;;;7.34;100.00
3178;BME280;38141;42.666;23.344;2023-02-24T05:22:51;94580.28;;;7.43;100.00
3178;BME280;38141;42.666;23.344;2023-02-24T05:25:18;94598.44;;;7.50;100.00
3178;BME280;38141;42.666;23.344;2023-02-24T05:27:46;94569.88;;;7.42;100.00
3178;BME280;38141;42.666;23.344;2023-02-24T05:30:13;94586.94;;;7.53;100.00
3178;BME280;38141;42.666;23.344;2023-02-24T05:32:40;94577.56;;;7.40;100.00
3178;BME280;38141;42.666;23.344;2023-02-24T05:35:08;94556.16;;;7.21;100.00
3178;BME280;38141;42.666;23.344;2023-02-24T05:37:37;94500.38;;;6.88;100.00
3178;BME280;38141;42.666;23.344;2023-02-24T05:40:08;94483.03;;;6.59;100.00
3178;BME280;38141;42.666;23.344;2023-02-24T05:42:38;94498.25;;;6.74;100.00
3178;BME280;38141;42.666;23.344;2023-02-24T05:45:09;94592.81;;;7.32;100.00
3178;BME280;38141;42.666;23.344;2023-02-24T05:47:36;94577.09;;;7.08;100.00
3178;BME280;38141;42.666;23.344;2023-02-24T05:50:05;94590.91;;;7.33;100.00
3178;BME280;38141;42.666;23.344;2023-02-24T05:55:54;94569.69;;;7.01;100.00
3178;BME280;38141;42.666;23.344;2023-02-24T05:58:26;94510.22;;;6.77;100.00
3178;BME280;38141;42.666;23.344;2023-02-24T06:00:54;94594.88;;;7.42;100.00
3178;BME280;38141;42.666;23.344;2023-02-24T06:03:24;94586.13;;;7.23;100.00
3178;BME280;38141;42.666;23.344;2023-02-24T06:05:55;94597.28;;;7.21;100.00
3178;BME280;38141;42.666;23.344;2023-02-24T06:08:31;94582.75;;;7.26;100.00
3178;BME280;38141;42.666;23.344;2023-02-24T06:11:07;94508.91;;;6.93;100.00
3178;BME280;38141;42.666;23.344;2023-02-24T06:13:35;94570.09;;;7.30;100.00
3178;BME280;38141;42.666;23.344;2023-02-24T06:16:04;94573.88;;;7.25;100.00
3178;BME280;38141;42.666;23.344;2023-02-24T06:18:31;94588.09;;;7.52;100.00
3178;BME280;38141;42.666;23.344;2023-02-24T06:21:01;94531.91;;;7.17;100.00
3178;BME280;38141;42.666;23.344;2023-02-24T06:23:29;94590.09;;;7.58;100.00
3178;BME280;38141;42.666;23.344;2023-02-24T06:26:00;94580.28;;;7.43;100.00
3178;BME280;38141;42.666;23.344;2023-02-24T06:28:28;94611.63;;;7.58;100.00
3178;BME280;38141;42.666;23.344;2023-02-24T06:30:55;94498.69;;;6.76;100.00
3178;BME280;38141;42.666;23.344;2023-02-24T06:33:24;94515.69;;;7.13;100.00
3178;BME280;38141;42.666;23.344;2023-02-24T06:39:13;94603.13;;;7.86;100.00
3178;BME280;38141;42.666;23.344;2023-02-24T06:41:41;94605.25;;;8.03;100.00
3178;BME280;38141;42.666;23.344;2023-02-24T06:44:08;94606.97;;;7.85;100.00
3178;BME280;38141;42.666;23.344;2023-02-24T06:46:35;94552.50;;;7.66;100.00
3178;BME280;38141;42.666;23.344;2023-02-24T06:49:03;94600.47;;;7.60;100.00
3178;BME280;38141;42.666;23.344;2023-02-24T06:51:30;94607.66;;;7.79;100.00
3178;BME280;38141;42.666;23.344;2023-02-24T06:53:58;94576.41;;;7.71;100.00
3178;BME280;38141;42.666;23.344;2023-02-24T06:56:27;94600.69;;;8.08;100.00
3178;BME280;38141;42.666;23.344;2023-02-24T06:58:54;94594.06;;;8.01;100.00
3178;BME280;38141;42.666;23.344;2023-02-24T07:01:24;94590.13;;;7.95;100.00
3178;BME280;38141;42.666;23.344;2023-02-24T07:03:53;94542.78;;;7.28;100.00
3178;BME280;38141;42.666;23.344;2023-02-24T07:06:47;94590.41;;;7.83;100.00
3178;BME280;38141;42.666;23.344;2023-02-24T07:09:18;94500.44;;;7.54;100.00
3178;BME280;38141;42.666;23.344;2023-02-24T07:11:47;94513.75;;;7.77;100.00
3178;BME280;38141;42.666;23.344;2023-02-24T07:14:17;94587.16;;;8.37;100.00
3178;BME280;38141;42.666;23.344;2023-02-24T07:16:45;94577.78;;;8.65;100.00
3178;BME280;38141;42.666;23.344;2023-02-24T07:19:16;94566.72;;;8.33;100.00
3178;BME280;38141;42.666;23.344;2023-02-24T07:21:46;94585.84;;;8.61;100.00
3178;BME280;38141;42.666;23.344;2023-02-24T07:24:16;94567.13;;;8.82;100.00
3178;BME280;38141;42.666;23.344;2023-02-24T07:26:54;94566.66;;;8.70;100.00
3178;BME280;38141;42.666;23.344;2023-02-24T07:29:21;94577.00;;;9.15;100.00
3178;BME280;38141;42.666;23.344;2023-02-24T07:31:48;94571.72;;;9.29;100.00
3178;BME280;38141;42.666;23.344;2023-02-24T07:34:20;94562.06;;;9.28;100.00
3178;BME280;38141;42.666;23.344;2023-02-24T07:36:51;94581.47;;;9.52;100.00
3178;BME280;38141;42.666;23.344;2023-02-24T07:39:23;94552.72;;;9.15;100.00
3178;BME280;38141;42.666;23.344;2023-02-24T07:41:51;94508.94;;;8.81;100.00
3178;BME280;38141;42.666;23.344;2023-02-24T07:44:20;94569.03;;;9.33;100.00
3178;BME280;38141;42.666;23.344;2023-02-24T07:46:48;94577.47;;;9.28;100.00
3178;BME280;38141;42.666;23.344;2023-02-24T07:49:17;94570.59;;;9.37;100.00
3178;BME280;38141;42.666;23.344;2023-02-24T07:51:45;94569.16;;;9.58;100.00
3178;BME280;38141;42.666;23.344;2023-02-24T07:54:18;94567.97;;;9.52;100.00
3178;BME280;38141;42.666;23.344;2023-02-24T07:56:46;94575.47;;;9.87;100.00
3178;BME280;38141;42.666;23.344;2023-02-24T07:59:21;94572.94;;;9.46;100.00
3178;BME280;38141;42.666;23.344;2023-02-24T08:01:48;94570.34;;;9.64;100.00
3178;BME280;38141;42.666;23.344;2023-02-24T08:04:21;94554.56;;;9.73;100.00
3178;BME280;38141;42.666;23.344;2023-02-24T08:06:50;94561.34;;;9.38;100.00
3178;BME280;38141;42.666;23.344;2023-02-24T08:09:23;94549.19;;;9.76;100.00
3178;BME280;38141;42.666;23.344;2023-02-24T08:12:04;94562.78;;;10.05;100.00
3178;BME280;38141;42.666;23.344;2023-02-24T08:14:32;94546.19;;;10.10;100.00
3178;BME280;38141;42.666;23.344;2023-02-24T08:17:00;94536.63;;;10.30;100.00
3178;BME280;38141;42.666;23.344;2023-02-24T08:19:30;94530.06;;;10.31;100.00
3178;BME280;38141;42.666;23.344;2023-02-24T08:22:05;94531.97;;;10.16;100.00
3178;BME280;38141;42.666;23.344;2023-02-24T08:24:45;94552.44;;;10.17;100.00
3178;BME280;38141;42.666;23.344;2023-02-24T08:27:15;94537.28;;;9.95;100.00
3178;BME280;38141;42.666;23.344;2023-02-24T08:29:46;94554.41;;;10.59;100.00
3178;BME280;38141;42.666;23.344;2023-02-24T08:32:24;94550.03;;;9.95;100.00
3178;BME280;38141;42.666;23.344;2023-02-24T08:34:51;94554.28;;;10.03;100.00
3178;BME280;38141;42.666;23.344;2023-02-24T08:37:21;94552.88;;;10.69;100.00
3178;BME280;38141;42.666;23.344;2023-02-24T08:39:50;94546.28;;;11.20;100.00
3178;BME280;38141;42.666;23.344;2023-02-24T08:42:20;94547.47;;;11.04;97.83
3178;BME280;38141;42.666;23.344;2023-02-24T08:44:55;94555.97;;;11.17;96.32
3178;BME280;38141;42.666;23.344;2023-02-24T08:47:22;94537.06;;;10.71;97.90
3178;BME280;38141;42.666;23.344;2023-02-24T08:49:55;94543.22;;;10.64;100.00
3178;BME280;38141;42.666;23.344;2023-02-24T08:52:25;94549.75;;;11.34;95.01
3178;BME280;38141;42.666;23.344;2023-02-24T08:54:54;94549.03;;;10.98;94.01
3178;BME280;38141;42.666;23.344;2023-02-24T08:57:24;94542.06;;;10.94;94.07
3178;BME280;38141;42.666;23.344;2023-02-24T08:59:51;94533.44;;;11.63;88.68
3178;BME280;38141;42.666;23.344;2023-02-24T09:02:24;94527.75;;;11.07;89.78
3178;BME280;38141;42.666;23.344;2023-02-24T09:04:55;94555.13;;;11.48;89.80
3178;BME280;38141;42.666;23.344;2023-02-24T09:07:25;94540.38;;;11.64;87.82
3178;BME280;38141;42.666;23.344;2023-02-24T09:09:54;94511.78;;;11.45;86.25
3178;BME280;38141;42.666;23.344;2023-02-24T09:12:26;94538.50;;;11.43;87.10
3178;BME280;38141;42.666;23.344;2023-02-24T09:14:56;94526.91;;;11.39;88.67
3178;BME280;38141;42.666;23.344;2023-02-24T09:17:26;94542.38;;;11.42;89.77
3178;BME280;38141;42.666;23.344;2023-02-24T09:20:15;94524.88;;;11.68;85.46
3178;BME280;38141;42.666;23.344;2023-02-24T09:23:00;94525.19;;;11.94;82.30
3178;BME280;38141;42.666;23.344;2023-02-24T09:25:33;94530.00;;;12.31;79.42
3178;BME280;38141;42.666;23.344;2023-02-24T09:28:09;94531.59;;;12.25;79.04
3178;BME280;38141;42.666;23.344;2023-02-24T09:30:43;94530.94;;;12.00;80.88
3178;BME280;38141;42.666;23.344;2023-02-24T09:33:19;94531.63;;;12.22;79.65
3178;BME280;38141;42.666;23.344;2023-02-24T09:35:52;94484.22;;;11.75;81.85
3178;BME280;38141;42.666;23.344;2023-02-24T09:38:27;94521.13;;;12.31;77.91
3178;BME280;38141;42.666;23.344;2023-02-24T09:41:33;94496.25;;;12.36;78.78
3178;BME280;38141;42.666;23.344;2023-02-24T09:44:24;94521.00;;;12.48;77.90
3178;BME280;38141;42.666;23.344;2023-02-24T09:46:55;94519.91;;;12.87;75.11
3178;BME280;38141;42.666;23.344;2023-02-24T09:49:40;94528.94;;;12.73;75.37
3178;BME280;38141;42.666;23.344;2023-02-24T09:52:13;94524.50;;;12.49;76.40
3178;BME280;38141;42.666;23.344;2023-02-24T09:54:46;94515.00;;;12.16;77.71
3178;BME280;38141;42.666;23.344;2023-02-24T09:57:48;94516.56;;;12.69;76.31
3178;BME280;38141;42.666;23.344;2023-02-24T10:00:34;94513.97;;;12.55;75.58
3178;BME280;38141;42.666;23.344;2023-02-24T10:03:13;94494.50;;;12.63;76.10
3178;BME280;38141;42.666;23.344;2023-02-24T10:05:54;94499.38;;;12.86;74.67
3178;BME280;38141;42.666;23.344;2023-02-24T10:08:30;94500.44;;;12.96;72.63
3178;BME280;38141;42.666;23.344;2023-02-24T10:10:59;94498.06;;;13.01;72.36
3178;BME280;38141;42.666;23.344;2023-02-24T10:13:36;94418.03;;;12.75;69.79
3178;BME280;38141;42.666;23.344;2023-02-24T10:16:11;94491.06;;;13.04;69.82
3178;BME280;38141;42.666;23.344;2023-02-24T10:18:44;94489.00;;;13.18;72.15
3178;BME280;38141;42.666;23.344;2023-02-24T10:21:19;94476.69;;;13.07;71.99
3178;BME280;38141;42.666;23.344;2023-02-24T10:24:03;94460.09;;;12.98;71.57
3178;BME280;38141;42.666;23.344;2023-02-24T10:26:37;94469.97;;;12.77;73.03
3178;BME280;38141;42.666;23.344;2023-02-24T10:29:22;94460.97;;;12.87;72.52
3178;BME280;38141;42.666;23.344;2023-02-24T10:32:03;94440.66;;;12.99;72.24
3178;BME280;38141;42.666;23.344;2023-02-24T10:34:48;94450.53;;;12.82;73.50
3178;BME280;38141;42.666;23.344;2023-02-24T10:37:16;94430.78;;;12.37;75.32
3178;BME280;38141;42.666;23.344;2023-02-24T10:39:44;94443.25;;;12.76;74.27
3178;BME280;38141;42.666;23.344;2023-02-24T10:42:22;94443.88;;;13.28;71.39
3178;BME280;38141;42.666;23.344;2023-02-24T10:44:51;94442.97;;;13.42;70.60
3178;BME280;38141;42.666;23.344;2023-02-24T10:47:37;94418.38;;;13.82;67.64
3178;BME280;38141;42.666;23.344;2023-02-24T10:50:19;94425.16;;;13.67;67.48
3178;BME280;38141;42.666;23.344;2023-02-24T10:52:52;94417.59;;;13.82;66.35
3178;BME280;38141;42.666;23.344;2023-02-24T10:55:51;94412.78;;;14.20;64.83
3178;BME280;38141;42.666;23.344;2023-02-24T10:58:39;94348.75;;;13.89;63.74
3178;BME280;38141;42.666;23.344;2023-02-24T11:01:17;94365.06;;;13.89;63.61
3178;BME280;38141;42.666;23.344;2023-02-24T11:04:10;94407.84;;;14.85;61.58
3178;BME280;38141;42.666;23.344;2023-02-24T11:07:02;94386.09;;;15.24;58.74
3178;BME280;38141;42.666;23.344;2023-02-24T11:09:35;94376.94;;;15.14;59.38
3178;BME280;38141;42.666;23.344;2023-02-24T11:12:12;94393.25;;;15.93;57.19
3178;BME280;38141;42.666;23.344;2023-02-24T11:15:01;94337.03;;;15.44;56.55
3178;BME280;38141;42.666;23.344;2023-02-24T11:17:50;94381.66;;;16.06;55.91
3178;BME280;38141;42.666;23.344;2023-02-24T11:20:26;94384.34;;;16.25;55.57
3178;BME280;38141;42.666;23.344;2023-02-24T11:22:54;94364.31;;;16.93;53.34
3178;BME280;38141;42.666;23.344;2023-02-24T11:25:24;94380.00;;;16.44;54.12
3178;BME280;38141;42.666;23.344;2023-02-24T11:27:54;94369.47;;;16.26;54.59
3178;BME280;38141;42.666;23.344;2023-02-24T11:30:29;94346.91;;;16.26;54.59
3178;BME280;38141;42.666;23.344;2023-02-24T11:33:11;94358.16;;;16.60;53.72
3178;BME280;38141;42.666;23.344;2023-02-24T11:35:47;94361.09;;;16.82;52.97
3178;BME280;38141;42.666;23.344;2023-02-24T11:38:28;94347.00;;;17.54;51.65
3178;BME280;38141;42.666;23.344;2023-02-24T11:41:02;94347.63;;;17.99;50.71
3178;BME280;38141;42.666;23.344;2023-02-24T11:43:32;94338.28;;;18.22;49.64
3178;BME280;38141;42.666;23.344;2023-02-24T11:46:04;94323.75;;;18.12;49.72
3178;BME280;38141;42.666;23.344;2023-02-24T11:48:38;94307.78;;;17.19;50.85
3178;BME280;38141;42.666;23.344;2023-02-24T11:51:10;94291.63;;;17.37;51.19
3178;BME280;38141;42.666;23.344;2023-02-24T11:53:42;94309.97;;;17.65;50.43
3178;BME280;38141;42.666;23.344;2023-02-24T11:56:15;94315.03;;;17.25;51.26
3178;BME280;38141;42.666;23.344;2023-02-24T11:58:48;94284.75;;;17.04;51.41
3178;BME280;38141;42.666;23.344;2023-02-24T12:01:21;94291.81;;;16.76;52.20
3178;BME280;38141;42.666;23.344;2023-02-24T12:03:56;94296.19;;;17.15;51.94
3178;BME280;38141;42.666;23.344;2023-02-24T12:06:30;94277.78;;;17.69;50.48
3178;BME280;38141;42.666;23.344;2023-02-24T12:09:02;94275.16;;;17.78;49.98
3178;BME280;38141;42.666;23.344;2023-02-24T12:11:39;94283.84;;;17.35;51.02
3178;BME280;38141;42.666;23.344;2023-02-24T12:14:17;94288.06;;;16.99;52.10
3178;BME280;38141;42.666;23.344;2023-02-24T12:16:52;94280.41;;;17.60;50.86
3178;BME280;38141;42.666;23.344;2023-02-24T12:19:27;94274.25;;;17.44;50.97
3178;BME280;38141;42.666;23.344;2023-02-24T12:22:01;94272.75;;;17.68;50.47
3178;BME280;38141;42.666;23.344;2023-02-24T12:24:30;94260.69;;;17.91;50.17
3178;BME280;38141;42.666;23.344;2023-02-24T12:27:05;94259.72;;;17.72;50.53
3178;BME280;38141;42.666;23.344;2023-02-24T12:29:49;94253.13;;;16.90;52.54
3178;BME280;38141;42.666;23.344;2023-02-24T12:32:25;94246.41;;;17.07;52.44
3178;BME280;38141;42.666;23.344;2023-02-24T12:35:03;94225.91;;;16.74;52.73
3178;BME280;38141;42.666;23.344;2023-02-24T12:37:49;94240.22;;;17.32;51.38
3178;BME280;38141;42.666;23.344;2023-02-24T12:40:28;94263.84;;;17.39;51.27
3178;BME280;38141;42.666;23.344;2023-02-24T12:43:11;94230.88;;;17.04;51.58
3178;BME280;38141;42.666;23.344;2023-02-24T12:45:47;94257.53;;;17.00;51.92
3178;BME280;38141;42.666;23.344;2023-02-24T12:48:29;94259.22;;;16.81;52.26
3178;BME280;38141;42.666;23.344;2023-02-24T12:51:11;94254.16;;;17.09;52.04
3178;BME280;38141;42.666;23.344;2023-02-24T12:53:46;94210.97;;;16.91;51.53
3178;BME280;38141;42.666;23.344;2023-02-24T12:56:20;94262.00;;;17.48;51.59
3178;BME280;38141;42.666;23.344;2023-02-24T12:58:50;94258.88;;;17.62;52.06
3178;BME280;38141;42.666;23.344;2023-02-24T13:01:24;94224.56;;;17.07;52.38
3178;BME280;38141;42.666;23.344;2023-02-24T13:04:02;94224.75;;;16.59;54.85
3178;BME280;38141;42.666;23.344;2023-02-24T13:06:47;94167.69;;;15.74;57.07
3178;BME280;38141;42.666;23.344;2023-02-24T13:09:23;94162.03;;;15.81;58.51
3178;BME280;38141;42.666;23.344;2023-02-24T13:11:55;94139.72;;;15.38;58.26
3178;BME280;38141;42.666;23.344;2023-02-24T13:14:26;94159.91;;;15.89;58.66
3178;BME280;38141;42.666;23.344;2023-02-24T13:17:14;94190.47;;;16.41;57.08
3178;BME280;38141;42.666;23.344;2023-02-24T13:19:42;94181.06;;;16.30;57.37
3178;BME280;38141;42.666;23.344;2023-02-24T13:22:19;94152.34;;;15.80;57.53
3178;BME280;38141;42.666;23.344;2023-02-24T13:24:57;94151.50;;;15.51;58.02
3178;BME280;38141;42.666;23.344;2023-02-24T13:27:25;94169.03;;;15.34;60.13
3178;BME280;38141;42.666;23.344;2023-02-24T13:29:55;94213.34;;;15.54;59.33
3178;BME280;38141;42.666;23.344;2023-02-24T13:32:34;94215.75;;;15.52;59.18
3178;BME280;38141;42.666;23.344;2023-02-24T13:35:03;94203.81;;;15.78;58.47
3178;BME280;38141;42.666;23.344;2023-02-24T13:37:33;94194.97;;;15.74;59.88
3178;BME280;38141;42.666;23.344;2023-02-24T13:40:17;94173.78;;;15.46;61.48
3178;BME280;38141;42.666;23.344;2023-02-24T13:42:56;94201.59;;;15.73;61.96
3178;BME280;38141;42.666;23.344;2023-02-24T13:45:24;94214.69;;;15.94;62.96